Thunderstorms From: 22-05-2018 15:00 Until: 23-05-2018 15:00 warning for: Thunderstorms Level: Yellow info button

Although rather usual in this region, locally or potentially dangerous phenomena are expected. (such as local winds, summer thunderstorms, rising streams or high waves) Be aware and pay attention to the latest weather updates, especially if you carry out activities exposed to weather or close to a stream or shoreline. 


Meteo18 Weather Cam more information Meteo18 Weather Cam


warning for Thunderstorms more information blitzortung!


Rain radar more information rain snow radar


Visit our other weather sites:

Template documentation
and downloads

And another site



Weather Underground History page Text

Daily Summary for January 22, 2017 Units:  Both    English   Metric
« Previous Day
Next Day »
Daily Weekly Monthly Yearly Custom
  High: Low: Average:
Temperature: TemperatureC °F /  -17.8 °C -5.4 °F /  -20.8 °C -0.6 °F /  -18.1 °C
Dew Point: DewpointC °F /  -17.8 °C -6.8 °F /  -21.6 °C -3.8 °F /  -19.9 °C
Humidity: Humidity % 55 % 79 %
Wind Speed: WindSpeedKMH mph /  0 km/h - 2.4 mph /  3.9 km/h
Wind Gust: WindSpeedGustKMH mph /  0 km/h - -
Wind:- - South
Pressure: PressurehPa in /  0 hPa 1023.2 in /  34645.6 hPa -
Precipitation: 0.0 in /  0 mm    
Historical Graphs
 
 
Tabular Data for January 22, 2017
Time Temperature Dew Point Pressure Wind Wind Speed Wind Gust Humidity Rainfall Rate (Hourly)
TemperatureC °F /  -17.8 °C DewpointC °F /  -17.8 °C PressurehPa in /  0 hPa Calm     Humidity % HourlyPrecipMM in /  0 mm
00:02 -2.3 °F /  -19.1 °C -4.2 °F /  -20.1 °C 1026.0 in /  34740.4 hPa NW 1.6 mph /  2.6 km/h   87 % 0.0 in /  0 mm
00:07 -2.2 °F /  -19 °C -4.2 °F /  -20.1 °C 1026.0 in /  34740.4 hPa North 3.2 mph /  5.1 km/h 3.2 mph /  5.1 km/h 86 % 0.0 in /  0 mm
00:12 -2.4 °F /  -19.1 °C -4.4 °F /  -20.2 °C 1026.0 in /  34740.4 hPa NNW 3.2 mph /  5.1 km/h 4.8 mph /  7.7 km/h 86 % 0.0 in /  0 mm
00:17 -2.3 °F /  -19.1 °C -4.3 °F /  -20.2 °C 1026.0 in /  34740.4 hPa NNW 3.2 mph /  5.1 km/h 4.8 mph /  7.7 km/h 86 % 0.0 in /  0 mm
00:22 -2.2 °F /  -19 °C -4.2 °F /  -20.1 °C 1025.6 in /  34726.8 hPa North 1.6 mph /  2.6 km/h 4.8 mph /  7.7 km/h 86 % 0.0 in /  0 mm
00:27 -2.1 °F /  -18.9 °C -4.1 °F /  -20.1 °C 1025.6 in /  34726.8 hPa NNW 1.6 mph /  2.6 km/h 4.8 mph /  7.7 km/h 86 % 0.0 in /  0 mm
00:32 -1.9 °F /  -18.8 °C -3.9 °F /  -19.9 °C 1025.6 in /  34726.8 hPa North 1.6 mph /  2.6 km/h 4.8 mph /  7.7 km/h 86 % 0.0 in /  0 mm
00:37 -1.8 °F /  -18.8 °C -4.0 °F /  -20 °C 1025.6 in /  34726.8 hPa North 1.6 mph /  2.6 km/h 4.8 mph /  7.7 km/h 85 % 0.0 in /  0 mm
00:42 -1.8 °F /  -18.8 °C -4.0 °F /  -20 °C 1025.6 in /  34726.8 hPa North 1.6 mph /  2.6 km/h 3.2 mph /  5.1 km/h 85 % 0.0 in /  0 mm
00:47 -1.8 °F /  -18.8 °C -4.0 °F /  -20 °C 1025.6 in /  34726.8 hPa Calm   3.2 mph /  5.1 km/h 85 % 0.0 in /  0 mm
00:52 -2.0 °F /  -18.9 °C -4.2 °F /  -20.1 °C 1025.6 in /  34726.8 hPa North 1.6 mph /  2.6 km/h 1.6 mph /  2.6 km/h 85 % 0.0 in /  0 mm
00:57 -2.1 °F /  -18.9 °C -4.3 °F /  -20.2 °C 1025.6 in /  34726.8 hPa Calm   1.6 mph /  2.6 km/h 85 % 0.0 in /  0 mm
01:02 -2.1 °F /  -18.9 °C -4.1 °F /  -20.1 °C 1025.6 in /  34726.8 hPa North 1.6 mph /  2.6 km/h 1.6 mph /  2.6 km/h 86 % 0.0 in /  0 mm
01:07 -2.2 °F /  -19 °C -4.4 °F /  -20.2 °C 1025.6 in /  34726.8 hPa Calm   3.2 mph /  5.1 km/h 85 % 0.0 in /  0 mm
01:12 -2.6 °F /  -19.2 °C -4.6 °F /  -20.3 °C 1025.6 in /  34726.8 hPa Calm   3.2 mph /  5.1 km/h 86 % 0.0 in /  0 mm
01:17 -2.6 °F /  -19.2 °C -4.6 °F /  -20.3 °C 1025.6 in /  34726.8 hPa Calm   3.2 mph /  5.1 km/h 86 % 0.0 in /  0 mm
01:22 -2.4 °F /  -19.1 °C -4.3 °F /  -20.2 °C 1025.6 in /  34726.8 hPa NNE 1.6 mph /  2.6 km/h 1.6 mph /  2.6 km/h 87 % 0.0 in /  0 mm
01:27 -2.2 °F /  -19 °C -4.2 °F /  -20.1 °C 1025.6 in /  34726.8 hPa NE 1.6 mph /  2.6 km/h 1.6 mph /  2.6 km/h 86 % 0.0 in /  0 mm
01:32 -2.3 °F /  -19.1 °C -4.3 °F /  -20.2 °C 1025.6 in /  34726.8 hPa NW 1.6 mph /  2.6 km/h 1.6 mph /  2.6 km/h 86 % 0.0 in /  0 mm
01:37 -2.4 °F /  -19.1 °C -4.4 °F /  -20.2 °C 1025.6 in /  34726.8 hPa NW 1.6 mph /  2.6 km/h 1.6 mph /  2.6 km/h 86 % 0.0 in /  0 mm
01:42 -2.6 °F /  -19.2 °C -4.6 °F /  -20.3 °C 1025.6 in /  34726.8 hPa Calm   3.2 mph /  5.1 km/h 86 % 0.0 in /  0 mm
01:47 -2.4 °F /  -19.1 °C -4.3 °F /  -20.2 °C 1025.6 in /  34726.8 hPa NW 1.6 mph /  2.6 km/h 3.2 mph /  5.1 km/h 87 % 0.0 in /  0 mm
01:52 -2.3 °F /  -19.1 °C -4.2 °F /  -20.1 °C 1025.3 in /  34716.7 hPa NW 1.6 mph /  2.6 km/h 3.2 mph /  5.1 km/h 87 % 0.0 in /  0 mm
01:57 -2.9 °F /  -19.4 °C -5.1 °F /  -20.6 °C 1025.3 in /  34716.7 hPa WNW 3.2 mph /  5.1 km/h 3.2 mph /  5.1 km/h 85 % 0.0 in /  0 mm
02:02 -3.6 °F /  -19.8 °C -5.4 °F /  -20.8 °C 1025.3 in /  34716.7 hPa WNW 3.2 mph /  5.1 km/h 3.2 mph /  5.1 km/h 87 % 0.0 in /  0 mm
02:07 -4.1 °F /  -20.1 °C -5.8 °F /  -21 °C 1025.3 in /  34716.7 hPa WNW 1.6 mph /  2.6 km/h 3.2 mph /  5.1 km/h 88 % 0.0 in /  0 mm
02:12 -3.8 °F /  -19.9 °C -5.1 °F /  -20.6 °C 1024.9 in /  34703.1 hPa Calm   3.2 mph /  5.1 km/h 91 % 0.0 in /  0 mm
02:17 -3.4 °F /  -19.7 °C -4.8 °F /  -20.4 °C 1024.9 in /  34703.1 hPa Calm   3.2 mph /  5.1 km/h 90 % 0.0 in /  0 mm
02:22 -3.2 °F /  -19.6 °C -4.8 °F /  -20.4 °C 1024.9 in /  34703.1 hPa Calm   1.6 mph /  2.6 km/h 89 % 0.0 in /  0 mm
02:27 -3.1 °F /  -19.5 °C -4.7 °F /  -20.4 °C 1024.9 in /  34703.1 hPa Calm   1.6 mph /  2.6 km/h 89 % 0.0 in /  0 mm
02:32 -3.2 °F /  -19.6 °C -4.9 °F /  -20.5 °C 1024.9 in /  34703.1 hPa NNE 1.6 mph /  2.6 km/h 1.6 mph /  2.6 km/h 88 % 0.0 in /  0 mm
02:37 -3.3 °F /  -19.6 °C -5.0 °F /  -20.6 °C 1024.9 in /  34703.1 hPa NNE 3.2 mph /  5.1 km/h 3.2 mph /  5.1 km/h 88 % 0.0 in /  0 mm
02:42 -3.4 °F /  -19.7 °C -5.1 °F /  -20.6 °C 1024.9 in /  34703.1 hPa Calm   3.2 mph /  5.1 km/h 88 % 0.0 in /  0 mm
02:47 -3.8 °F /  -19.9 °C -5.6 °F /  -20.9 °C 1024.9 in /  34703.1 hPa Calm   3.2 mph /  5.1 km/h 87 % 0.0 in /  0 mm
02:52 -3.5 °F /  -19.7 °C -4.9 °F /  -20.5 °C 1025.3 in /  34716.7 hPa Calm   3.2 mph /  5.1 km/h 90 % 0.0 in /  0 mm
02:57 -3.5 °F /  -19.7 °C -5.0 °F /  -20.6 °C 1025.3 in /  34716.7 hPa Calm   1.6 mph /  2.6 km/h 89 % 0.0 in /  0 mm
03:02 -3.8 °F /  -19.9 °C -5.5 °F /  -20.8 °C 1025.3 in /  34716.7 hPa Calm   1.6 mph /  2.6 km/h 88 % 0.0 in /  0 mm
03:07 -4.2 °F /  -20.1 °C -5.9 °F /  -21.1 °C 1024.9 in /  34703.1 hPa Calm   1.6 mph /  2.6 km/h 88 % 0.0 in /  0 mm
03:12 -4.2 °F /  -20.1 °C -5.7 °F /  -20.9 °C 1024.9 in /  34703.1 hPa Calm   1.6 mph /  2.6 km/h 89 % 0.0 in /  0 mm
03:17 -4.6 °F /  -20.3 °C -6.1 °F /  -21.2 °C 1024.9 in /  34703.1 hPa Calm   1.6 mph /  2.6 km/h 89 % 0.0 in /  0 mm
03:22 -4.4 °F /  -20.2 °C -5.5 °F /  -20.8 °C 1024.9 in /  34703.1 hPa Calm   1.6 mph /  2.6 km/h 92 % 0.0 in /  0 mm
03:27 -4.0 °F /  -20 °C -5.3 °F /  -20.7 °C 1024.9 in /  34703.1 hPa Calm   1.6 mph /  2.6 km/h 91 % 0.0 in /  0 mm
03:32 -3.6 °F /  -19.8 °C -4.7 °F /  -20.4 °C 1024.9 in /  34703.1 hPa Calm   1.6 mph /  2.6 km/h 92 % 0.0 in /  0 mm
03:37 -3.8 °F /  -19.9 °C -5.2 °F /  -20.7 °C 1024.9 in /  34703.1 hPa Calm   1.6 mph /  2.6 km/h 90 % 0.0 in /  0 mm
03:42 -3.9 °F /  -19.9 °C -5.3 °F /  -20.7 °C 1024.9 in /  34703.1 hPa WNW 1.6 mph /  2.6 km/h 1.6 mph /  2.6 km/h 90 % 0.0 in /  0 mm
03:47 -4.1 °F /  -20.1 °C -5.3 °F /  -20.7 °C 1024.9 in /  34703.1 hPa Calm   1.6 mph /  2.6 km/h 91 % 0.0 in /  0 mm
03:52 -3.9 °F /  -19.9 °C -5.0 °F /  -20.6 °C 1024.9 in /  34703.1 hPa Calm   1.6 mph /  2.6 km/h 92 % 0.0 in /  0 mm
03:57 -3.7 °F /  -19.8 °C -4.8 °F /  -20.4 °C 1024.9 in /  34703.1 hPa Calm   1.6 mph /  2.6 km/h 92 % 0.0 in /  0 mm
04:02 -3.6 °F /  -19.8 °C -4.7 °F /  -20.4 °C 1024.9 in /  34703.1 hPa Calm   1.6 mph /  2.6 km/h 92 % 0.0 in /  0 mm
04:07 -3.4 °F /  -19.7 °C -4.5 °F /  -20.3 °C 1024.9 in /  34703.1 hPa Calm   1.6 mph /  2.6 km/h 92 % 0.0 in /  0 mm
04:17 -3.2 °F /  -19.6 °C -4.5 °F /  -20.3 °C 1024.9 in /  34703.1 hPa Calm   1.6 mph /  2.6 km/h 91 % 0.0 in /  0 mm
04:22 -3.1 °F /  -19.5 °C -4.5 °F /  -20.3 °C 1024.9 in /  34703.1 hPa Calm   1.6 mph /  2.6 km/h 90 % 0.0 in /  0 mm
04:27 -3.4 °F /  -19.7 °C -5.0 °F /  -20.6 °C 1024.9 in /  34703.1 hPa Calm     89 % 0.0 in /  0 mm
04:32 -3.5 °F /  -19.7 °C -4.9 °F /  -20.5 °C 1024.9 in /  34703.1 hPa Calm     90 % 0.0 in /  0 mm
04:37 -3.6 °F /  -19.8 °C -5.0 °F /  -20.6 °C 1024.9 in /  34703.1 hPa Calm     90 % 0.0 in /  0 mm
04:42 -4.2 °F /  -20.1 °C -5.7 °F /  -20.9 °C 1024.9 in /  34703.1 hPa Calm   1.6 mph /  2.6 km/h 89 % 0.0 in /  0 mm
04:47 -4.3 °F /  -20.2 °C -5.5 °F /  -20.8 °C 1024.9 in /  34703.1 hPa Calm   1.6 mph /  2.6 km/h 91 % 0.0 in /  0 mm
04:52 -4.6 °F /  -20.3 °C -6.0 °F /  -21.1 °C 1024.9 in /  34703.1 hPa Calm   1.6 mph /  2.6 km/h 90 % 0.0 in /  0 mm
04:57 -4.9 °F /  -20.5 °C -6.3 °F /  -21.3 °C 1024.9 in /  34703.1 hPa Calm   1.6 mph /  2.6 km/h 90 % 0.0 in /  0 mm
05:02 -4.9 °F /  -20.5 °C -6.0 °F /  -21.1 °C 1024.9 in /  34703.1 hPa Calm   1.6 mph /  2.6 km/h 92 % 0.0 in /  0 mm
05:12 -4.2 °F /  -20.1 °C -5.2 °F /  -20.7 °C 1024.6 in /  34693 hPa NW 1.6 mph /  2.6 km/h   93 % 0.0 in /  0 mm
05:17 -3.7 °F /  -19.8 °C -4.7 °F /  -20.4 °C 1024.6 in /  34693 hPa Calm   1.6 mph /  2.6 km/h 93 % 0.0 in /  0 mm
05:22 -3.7 °F /  -19.8 °C -5.0 °F /  -20.6 °C 1024.6 in /  34693 hPa North 1.6 mph /  2.6 km/h 1.6 mph /  2.6 km/h 91 % 0.0 in /  0 mm
05:32 -4.6 °F /  -20.3 °C -6.0 °F /  -21.1 °C 1024.6 in /  34693 hPa Calm   3.2 mph /  5.1 km/h 90 % 0.0 in /  0 mm
05:37 -5.0 °F /  -20.6 °C -6.4 °F /  -21.3 °C 1024.6 in /  34693 hPa NNE 1.6 mph /  2.6 km/h 3.2 mph /  5.1 km/h 90 % 0.0 in /  0 mm
05:42 -5.1 °F /  -20.6 °C -6.2 °F /  -21.2 °C 1024.6 in /  34693 hPa North 1.6 mph /  2.6 km/h 3.2 mph /  5.1 km/h 92 % 0.0 in /  0 mm
05:47 -4.9 °F /  -20.5 °C -5.9 °F /  -21.1 °C 1024.9 in /  34703.1 hPa Calm   3.2 mph /  5.1 km/h 93 % 0.0 in /  0 mm
05:52 -4.9 °F /  -20.5 °C -6.0 °F /  -21.1 °C 1024.6 in /  34693 hPa Calm   3.2 mph /  5.1 km/h 92 % 0.0 in /  0 mm
05:57 -4.9 °F /  -20.5 °C -6.0 °F /  -21.1 °C 1024.6 in /  34693 hPa Calm   1.6 mph /  2.6 km/h 92 % 0.0 in /  0 mm
06:02 -5.2 °F /  -20.7 °C -6.4 °F /  -21.3 °C 1024.6 in /  34693 hPa Calm   1.6 mph /  2.6 km/h 91 % 0.0 in /  0 mm
06:07 -5.2 °F /  -20.7 °C -6.3 °F /  -21.3 °C 1024.6 in /  34693 hPa Calm   1.6 mph /  2.6 km/h 92 % 0.0 in /  0 mm
06:12 -5.1 °F /  -20.6 °C -6.1 °F /  -21.2 °C 1024.6 in /  34693 hPa Calm   1.6 mph /  2.6 km/h 93 % 0.0 in /  0 mm
06:17 -4.9 °F /  -20.5 °C -5.9 °F /  -21.1 °C 1024.6 in /  34693 hPa Calm   1.6 mph /  2.6 km/h 93 % 0.0 in /  0 mm
06:22 -4.6 °F /  -20.3 °C -5.6 °F /  -20.9 °C 1024.6 in /  34693 hPa Calm   1.6 mph /  2.6 km/h 93 % 0.0 in /  0 mm
06:32 -4.3 °F /  -20.2 °C -5.3 °F /  -20.7 °C 1024.6 in /  34693 hPa Calm   1.6 mph /  2.6 km/h 93 % 0.0 in /  0 mm
06:42 -4.2 °F /  -20.1 °C -5.6 °F /  -20.9 °C 1024.6 in /  34693 hPa Calm   3.2 mph /  5.1 km/h 90 % 0.0 in /  0 mm
06:47 -4.4 °F /  -20.2 °C -5.6 °F /  -20.9 °C 1024.6 in /  34693 hPa North 1.6 mph /  2.6 km/h 3.2 mph /  5.1 km/h 91 % 0.0 in /  0 mm
06:57 -5.4 °F /  -20.8 °C -6.8 °F /  -21.6 °C 1024.3 in /  34682.8 hPa North 1.6 mph /  2.6 km/h 1.6 mph /  2.6 km/h 90 % 0.0 in /  0 mm
07:02 -5.4 °F /  -20.8 °C -6.6 °F /  -21.4 °C 1024.3 in /  34682.8 hPa NNE 1.6 mph /  2.6 km/h 1.6 mph /  2.6 km/h 91 % 0.0 in /  0 mm
07:12 -5.1 °F /  -20.6 °C -6.1 °F /  -21.2 °C 1024.3 in /  34682.8 hPa North 1.6 mph /  2.6 km/h 1.6 mph /  2.6 km/h 93 % 0.0 in /  0 mm
07:17 -4.7 °F /  -20.4 °C -5.7 °F /  -20.9 °C 1024.3 in /  34682.8 hPa NNW 1.6 mph /  2.6 km/h 1.6 mph /  2.6 km/h 93 % 0.0 in /  0 mm
07:22 -4.3 °F /  -20.2 °C -5.5 °F /  -20.8 °C 1024.3 in /  34682.8 hPa Calm   1.6 mph /  2.6 km/h 91 % 0.0 in /  0 mm
07:32 -3.9 °F /  -19.9 °C -5.6 °F /  -20.9 °C 1024.3 in /  34682.8 hPa Calm   1.6 mph /  2.6 km/h 88 % 0.0 in /  0 mm
07:37 -3.9 °F /  -19.9 °C -5.7 °F /  -20.9 °C 1024.3 in /  34682.8 hPa Calm   1.6 mph /  2.6 km/h 87 % 0.0 in /  0 mm
07:42 -4.1 °F /  -20.1 °C -5.9 °F /  -21.1 °C 1024.3 in /  34682.8 hPa Calm   1.6 mph /  2.6 km/h 87 % 0.0 in /  0 mm
07:47 -4.2 °F /  -20.1 °C -6.0 °F /  -21.1 °C 1024.3 in /  34682.8 hPa Calm   1.6 mph /  2.6 km/h 87 % 0.0 in /  0 mm
07:52 -4.1 °F /  -20.1 °C -5.8 °F /  -21 °C 1024.3 in /  34682.8 hPa Calm   1.6 mph /  2.6 km/h 88 % 0.0 in /  0 mm
07:57 -3.8 °F /  -19.9 °C -5.6 °F /  -20.9 °C 1024.3 in /  34682.8 hPa Calm     87 % 0.0 in /  0 mm
08:02 -3.8 °F /  -19.9 °C -5.8 °F /  -21 °C 1024.3 in /  34682.8 hPa Calm     86 % 0.0 in /  0 mm
08:12 -3.7 °F /  -19.8 °C -5.7 °F /  -20.9 °C 1024.3 in /  34682.8 hPa NW 1.6 mph /  2.6 km/h 1.6 mph /  2.6 km/h 86 % 0.0 in /  0 mm
08:17 -3.3 °F /  -19.6 °C -5.6 °F /  -20.9 °C 1024.3 in /  34682.8 hPa Calm   1.6 mph /  2.6 km/h 84 % 0.0 in /  0 mm
08:22 -3.2 °F /  -19.6 °C -5.7 °F /  -20.9 °C 1024.3 in /  34682.8 hPa Calm   1.6 mph /  2.6 km/h 83 % 0.0 in /  0 mm
08:27 -3.7 °F /  -19.8 °C -6.2 °F /  -21.2 °C 1024.3 in /  34682.8 hPa Calm   1.6 mph /  2.6 km/h 83 % 0.0 in /  0 mm
08:32 -4.1 °F /  -20.1 °C -6.1 °F /  -21.2 °C 1024.3 in /  34682.8 hPa North 1.6 mph /  2.6 km/h 1.6 mph /  2.6 km/h 86 % 0.0 in /  0 mm
08:37 -4.6 °F /  -20.3 °C -6.4 °F /  -21.3 °C 1024.3 in /  34682.8 hPa Calm   3.2 mph /  5.1 km/h 87 % 0.0 in /  0 mm
08:42 -4.4 °F /  -20.2 °C -6.2 °F /  -21.2 °C 1024.3 in /  34682.8 hPa NNW 1.6 mph /  2.6 km/h 3.2 mph /  5.1 km/h 87 % 0.0 in /  0 mm
08:47 -4.2 °F /  -20.1 °C -6.0 °F /  -21.1 °C 1024.3 in /  34682.8 hPa NNW 1.6 mph /  2.6 km/h 3.2 mph /  5.1 km/h 87 % 0.0 in /  0 mm
08:52 -3.9 °F /  -19.9 °C -6.0 °F /  -21.1 °C 1024.3 in /  34682.8 hPa NW 1.6 mph /  2.6 km/h 3.2 mph /  5.1 km/h 85 % 0.0 in /  0 mm
08:57 -3.8 °F /  -19.9 °C -6.1 °F /  -21.2 °C 1024.3 in /  34682.8 hPa Calm   4.8 mph /  7.7 km/h 84 % 0.0 in /  0 mm
09:02 -3.8 °F /  -19.9 °C -6.1 °F /  -21.2 °C 1024.3 in /  34682.8 hPa Calm   4.8 mph /  7.7 km/h 84 % 0.0 in /  0 mm
09:12 -3.2 °F /  -19.6 °C -5.8 °F /  -21 °C 1024.6 in /  34693 hPa Calm   1.6 mph /  2.6 km/h 82 % 0.0 in /  0 mm
09:17 -3.3 °F /  -19.6 °C -6.1 °F /  -21.2 °C 1024.3 in /  34682.8 hPa Calm   3.2 mph /  5.1 km/h 81 % 0.0 in /  0 mm
09:22 -3.6 °F /  -19.8 °C -6.4 °F /  -21.3 °C 1024.6 in /  34693 hPa Calm   3.2 mph /  5.1 km/h 81 % 0.0 in /  0 mm
09:32 -4.0 °F /  -20 °C -6.3 °F /  -21.3 °C 1024.6 in /  34693 hPa East 1.6 mph /  2.6 km/h 3.2 mph /  5.1 km/h 84 % 0.0 in /  0 mm
09:37 -4.1 °F /  -20.1 °C -6.1 °F /  -21.2 °C 1024.6 in /  34693 hPa ENE 1.6 mph /  2.6 km/h 1.6 mph /  2.6 km/h 86 % 0.0 in /  0 mm
09:42 -4.3 °F /  -20.2 °C -6.1 °F /  -21.2 °C 1024.6 in /  34693 hPa ENE 1.6 mph /  2.6 km/h 1.6 mph /  2.6 km/h 87 % 0.0 in /  0 mm
09:47 -4.3 °F /  -20.2 °C -6.1 °F /  -21.2 °C 1024.6 in /  34693 hPa Calm   3.2 mph /  5.1 km/h 87 % 0.0 in /  0 mm
09:52 -4.2 °F /  -20.1 °C -6.0 °F /  -21.1 °C 1024.6 in /  34693 hPa Calm   3.2 mph /  5.1 km/h 87 % 0.0 in /  0 mm
10:02 -4.0 °F /  -20 °C -5.8 °F /  -21 °C 1024.6 in /  34693 hPa Calm   3.2 mph /  5.1 km/h 87 % 0.0 in /  0 mm
10:07 -3.9 °F /  -19.9 °C -5.7 °F /  -20.9 °C 1024.6 in /  34693 hPa Calm   1.6 mph /  2.6 km/h 87 % 0.0 in /  0 mm
10:12 -3.6 °F /  -19.8 °C -5.6 °F /  -20.9 °C 1024.6 in /  34693 hPa Calm   1.6 mph /  2.6 km/h 86 % 0.0 in /  0 mm
10:22 -3.2 °F /  -19.6 °C -5.4 °F /  -20.8 °C 1024.6 in /  34693 hPa Calm   1.6 mph /  2.6 km/h 85 % 0.0 in /  0 mm
10:27 -2.9 °F /  -19.4 °C -5.1 °F /  -20.6 °C 1024.6 in /  34693 hPa Calm   1.6 mph /  2.6 km/h 85 % 0.0 in /  0 mm
10:32 -2.6 °F /  -19.2 °C -4.8 °F /  -20.4 °C 1024.6 in /  34693 hPa Calm   1.6 mph /  2.6 km/h 85 % 0.0 in /  0 mm
10:37 -2.6 °F /  -19.2 °C -4.9 °F /  -20.5 °C 1024.6 in /  34693 hPa Calm   1.6 mph /  2.6 km/h 84 % 0.0 in /  0 mm
10:42 -2.6 °F /  -19.2 °C -4.8 °F /  -20.4 °C 1024.6 in /  34693 hPa Calm   1.6 mph /  2.6 km/h 85 % 0.0 in /  0 mm
10:52 -2.1 °F /  -18.9 °C -4.1 °F /  -20.1 °C 1024.6 in /  34693 hPa Calm   1.6 mph /  2.6 km/h 86 % 0.0 in /  0 mm
10:57 -1.7 °F /  -18.7 °C -3.7 °F /  -19.8 °C 1024.6 in /  34693 hPa Calm     86 % 0.0 in /  0 mm
11:02 -1.2 °F /  -18.4 °C -3.4 °F /  -19.7 °C 1024.6 in /  34693 hPa Calm     85 % 0.0 in /  0 mm
11:07 -0.9 °F /  -18.3 °C -3.4 °F /  -19.7 °C 1024.9 in /  34703.1 hPa Calm     83 % 0.0 in /  0 mm
11:12 -0.9 °F /  -18.3 °C -3.7 °F /  -19.8 °C 1024.9 in /  34703.1 hPa Calm     81 % 0.0 in /  0 mm
11:17 -0.8 °F /  -18.2 °C -3.5 °F /  -19.7 °C 1024.6 in /  34693 hPa Calm   1.6 mph /  2.6 km/h 82 % 0.0 in /  0 mm
11:22 -0.5 °F /  -18.1 °C -3.4 °F /  -19.7 °C 1024.6 in /  34693 hPa Calm   1.6 mph /  2.6 km/h 81 % 0.0 in /  0 mm
11:27 -0.2 °F /  -17.9 °C -3.2 °F /  -19.6 °C 1024.6 in /  34693 hPa Calm   1.6 mph /  2.6 km/h 80 % 0.0 in /  0 mm
11:32 -0.1 °F /  -17.8 °C -3.1 °F /  -19.5 °C 1024.6 in /  34693 hPa Calm   1.6 mph /  2.6 km/h 80 % 0.0 in /  0 mm
11:37 0.1 °F /  -17.7 °C -2.9 °F /  -19.4 °C 1024.6 in /  34693 hPa Calm   1.6 mph /  2.6 km/h 80 % 0.0 in /  0 mm
11:42 0.3 °F /  -17.6 °C -2.7 °F /  -19.3 °C 1024.6 in /  34693 hPa Calm   1.6 mph /  2.6 km/h 80 % 0.0 in /  0 mm
11:47 0.4 °F /  -17.6 °C -2.6 °F /  -19.2 °C 1024.6 in /  34693 hPa Calm   1.6 mph /  2.6 km/h 80 % 0.0 in /  0 mm
11:52 0.5 °F /  -17.5 °C -2.7 °F /  -19.3 °C 1024.3 in /  34682.8 hPa Calm   1.6 mph /  2.6 km/h 79 % 0.0 in /  0 mm
12:02 1.2 °F /  -17.1 °C -2.2 °F /  -19 °C 1024.3 in /  34682.8 hPa Calm   1.6 mph /  2.6 km/h 78 % 0.0 in /  0 mm
12:07 1.5 °F /  -16.9 °C -2.4 °F /  -19.1 °C 1024.3 in /  34682.8 hPa East 1.6 mph /  2.6 km/h 1.6 mph /  2.6 km/h 75 % 0.0 in /  0 mm
12:12 1.6 °F /  -16.9 °C -2.9 °F /  -19.4 °C 1024.3 in /  34682.8 hPa SE 1.6 mph /  2.6 km/h 3.2 mph /  5.1 km/h 72 % 0.0 in /  0 mm
12:17 1.8 °F /  -16.8 °C -2.2 °F /  -19 °C 1024.3 in /  34682.8 hPa Calm   3.2 mph /  5.1 km/h 75 % 0.0 in /  0 mm
12:22 2.2 °F /  -16.6 °C -2.3 °F /  -19.1 °C 1024.3 in /  34682.8 hPa East 3.2 mph /  5.1 km/h 3.2 mph /  5.1 km/h 72 % 0.0 in /  0 mm
12:27 2.2 °F /  -16.6 °C -2.9 °F /  -19.4 °C 1024.3 in /  34682.8 hPa East 3.2 mph /  5.1 km/h 3.2 mph /  5.1 km/h 69 % 0.0 in /  0 mm
12:32 2.3 °F /  -16.5 °C -3.0 °F /  -19.4 °C 1024.3 in /  34682.8 hPa East 6.4 mph /  10.3 km/h 6.4 mph /  10.3 km/h 68 % 0.0 in /  0 mm
12:37 2.3 °F /  -16.5 °C -3.2 °F /  -19.6 °C 1024.3 in /  34682.8 hPa ENE 6.4 mph /  10.3 km/h 6.4 mph /  10.3 km/h 67 % 0.0 in /  0 mm
12:42 2.3 °F /  -16.5 °C -2.6 °F /  -19.2 °C 1024.3 in /  34682.8 hPa ENE 4.8 mph /  7.7 km/h 8.0 mph /  12.9 km/h 70 % 0.0 in /  0 mm
12:47 2.3 °F /  -16.5 °C -3.0 °F /  -19.4 °C 1024.3 in /  34682.8 hPa East 4.8 mph /  7.7 km/h 8.0 mph /  12.9 km/h 68 % 0.0 in /  0 mm
12:52 2.3 °F /  -16.5 °C -2.6 °F /  -19.2 °C 1024.3 in /  34682.8 hPa ENE 1.6 mph /  2.6 km/h 8.0 mph /  12.9 km/h 70 % 0.0 in /  0 mm
12:57 2.4 °F /  -16.4 °C -2.7 °F /  -19.3 °C 1024.3 in /  34682.8 hPa East 3.2 mph /  5.1 km/h 8.0 mph /  12.9 km/h 69 % 0.0 in /  0 mm
13:02 2.4 °F /  -16.4 °C -2.9 °F /  -19.4 °C 1023.9 in /  34669.3 hPa ENE 6.4 mph /  10.3 km/h 8.0 mph /  12.9 km/h 68 % 0.0 in /  0 mm
13:07 2.5 °F /  -16.4 °C -2.6 °F /  -19.2 °C 1023.9 in /  34669.3 hPa Calm   8.0 mph /  12.9 km/h 69 % 0.0 in /  0 mm
13:12 2.7 °F /  -16.3 °C -2.6 °F /  -19.2 °C 1023.9 in /  34669.3 hPa ENE 4.8 mph /  7.7 km/h 8.0 mph /  12.9 km/h 68 % 0.0 in /  0 mm
13:17 2.8 °F /  -16.2 °C -2.7 °F /  -19.3 °C 1023.9 in /  34669.3 hPa ENE 3.2 mph /  5.1 km/h 8.0 mph /  12.9 km/h 67 % 0.0 in /  0 mm
13:22 2.8 °F /  -16.2 °C -2.5 °F /  -19.2 °C 1023.9 in /  34669.3 hPa NNE 3.2 mph /  5.1 km/h 8.0 mph /  12.9 km/h 68 % 0.0 in /  0 mm
13:32 2.9 °F /  -16.2 °C -2.8 °F /  -19.3 °C 1023.6 in /  34659.1 hPa NE 3.2 mph /  5.1 km/h 8.0 mph /  12.9 km/h 66 % 0.0 in /  0 mm
13:37 2.9 °F /  -16.2 °C -2.6 °F /  -19.2 °C 1023.6 in /  34659.1 hPa NE 3.2 mph /  5.1 km/h 8.0 mph /  12.9 km/h 67 % 0.0 in /  0 mm
13:42 3.1 °F /  -16.1 °C -2.6 °F /  -19.2 °C 1023.6 in /  34659.1 hPa NNE 4.8 mph /  7.7 km/h 6.4 mph /  10.3 km/h 66 % 0.0 in /  0 mm
13:47 3.2 °F /  -16 °C -2.5 °F /  -19.2 °C 1023.6 in /  34659.1 hPa NE 3.2 mph /  5.1 km/h 9.7 mph /  15.6 km/h 66 % 0.0 in /  0 mm
13:52 3.3 °F /  -15.9 °C -2.2 °F /  -19 °C 1023.6 in /  34659.1 hPa NNE 8.0 mph /  12.9 km/h 9.7 mph /  15.6 km/h 67 % 0.0 in /  0 mm
13:57 3.6 °F /  -15.8 °C -2.8 °F /  -19.3 °C 1023.2 in /  34645.6 hPa NNW 1.6 mph /  2.6 km/h 9.7 mph /  15.6 km/h 63 % 0.0 in /  0 mm
14:02 3.7 °F /  -15.7 °C -2.5 °F /  -19.2 °C 1023.2 in /  34645.6 hPa NNE 1.6 mph /  2.6 km/h 9.7 mph /  15.6 km/h 64 % 0.0 in /  0 mm
14:07 3.9 °F /  -15.6 °C -2.5 °F /  -19.2 °C 1023.2 in /  34645.6 hPa North 4.8 mph /  7.7 km/h 11.3 mph /  18.2 km/h 63 % 0.0 in /  0 mm
14:12 4.2 °F /  -15.4 °C -2.2 °F /  -19 °C 1023.2 in /  34645.6 hPa NNW 3.2 mph /  5.1 km/h 11.3 mph /  18.2 km/h 63 % 0.0 in /  0 mm
14:22 4.4 °F /  -15.3 °C -2.5 °F /  -19.2 °C 1023.2 in /  34645.6 hPa NNE 8.0 mph /  12.9 km/h 12.9 mph /  20.8 km/h 61 % 0.0 in /  0 mm
14:27 4.7 °F /  -15.2 °C -2.6 °F /  -19.2 °C 1023.2 in /  34645.6 hPa NNE 6.4 mph /  10.3 km/h 11.3 mph /  18.2 km/h 59 % 0.0 in /  0 mm
14:32 4.8 °F /  -15.1 °C -3.2 °F /  -19.6 °C 1023.2 in /  34645.6 hPa NNE 6.4 mph /  10.3 km/h 11.3 mph /  18.2 km/h 56 % 0.0 in /  0 mm
14:37 4.9 °F /  -15.1 °C -2.7 °F /  -19.3 °C 1023.2 in /  34645.6 hPa NE 8.0 mph /  12.9 km/h 12.9 mph /  20.8 km/h 58 % 0.0 in /  0 mm
14:42 5.1 °F /  -14.9 °C -2.5 °F /  -19.2 °C 1023.2 in /  34645.6 hPa North 9.7 mph /  15.6 km/h 12.9 mph /  20.8 km/h 58 % 0.0 in /  0 mm
14:47 5.1 °F /  -14.9 °C -3.0 °F /  -19.4 °C 1023.2 in /  34645.6 hPa NE 9.7 mph /  15.6 km/h 14.5 mph /  23.3 km/h 56 % 0.0 in /  0 mm
14:52 5.3 °F /  -14.8 °C -2.5 °F /  -19.2 °C 1023.2 in /  34645.6 hPa North 4.8 mph /  7.7 km/h 14.5 mph /  23.3 km/h 57 % 0.0 in /  0 mm
14:57 5.3 °F /  -14.8 °C -2.8 °F /  -19.3 °C 1023.2 in /  34645.6 hPa NE 3.2 mph /  5.1 km/h 14.5 mph /  23.3 km/h 56 % 0.0 in /  0 mm
15:02 5.3 °F /  -14.8 °C -2.3 °F /  -19.1 °C 1023.2 in /  34645.6 hPa NNE 8.0 mph /  12.9 km/h 14.5 mph /  23.3 km/h 58 % 0.0 in /  0 mm
15:07 5.3 °F /  -14.8 °C -2.5 °F /  -19.2 °C 1023.2 in /  34645.6 hPa ENE 3.2 mph /  5.1 km/h 12.9 mph /  20.8 km/h 57 % 0.0 in /  0 mm
15:12 5.3 °F /  -14.8 °C -3.0 °F /  -19.4 °C 1023.2 in /  34645.6 hPa NE 8.0 mph /  12.9 km/h 12.9 mph /  20.8 km/h 55 % 0.0 in /  0 mm
15:17 5.3 °F /  -14.8 °C -2.3 °F /  -19.1 °C 1023.2 in /  34645.6 hPa North 3.2 mph /  5.1 km/h 9.7 mph /  15.6 km/h 58 % 0.0 in /  0 mm
15:27 5.4 °F /  -14.8 °C -2.4 °F /  -19.1 °C 1023.2 in /  34645.6 hPa NE 6.4 mph /  10.3 km/h 9.7 mph /  15.6 km/h 57 % 0.0 in /  0 mm
15:32 5.3 °F /  -14.8 °C -2.8 °F /  -19.3 °C 1023.2 in /  34645.6 hPa WNW 3.2 mph /  5.1 km/h 9.7 mph /  15.6 km/h 56 % 0.0 in /  0 mm
15:37 5.2 °F /  -14.9 °C -2.9 °F /  -19.4 °C 1023.2 in /  34645.6 hPa NNE 4.8 mph /  7.7 km/h 11.3 mph /  18.2 km/h 56 % 0.0 in /  0 mm
15:42 5.0 °F /  -15 °C -2.8 °F /  -19.3 °C 1023.2 in /  34645.6 hPa NNW 1.6 mph /  2.6 km/h 11.3 mph /  18.2 km/h 57 % 0.0 in /  0 mm
15:47 4.9 °F /  -15.1 °C -2.9 °F /  -19.4 °C 1023.2 in /  34645.6 hPa NNW 1.6 mph /  2.6 km/h 11.3 mph /  18.2 km/h 57 % 0.0 in /  0 mm
15:52 4.9 °F /  -15.1 °C -2.4 °F /  -19.1 °C 1023.2 in /  34645.6 hPa Calm   11.3 mph /  18.2 km/h 59 % 0.0 in /  0 mm
16:02 4.7 °F /  -15.2 °C -2.2 °F /  -19 °C 1023.6 in /  34659.1 hPa NNE 4.8 mph /  7.7 km/h 9.7 mph /  15.6 km/h 61 % 0.0 in /  0 mm
16:07 4.6 °F /  -15.2 °C -2.1 °F /  -18.9 °C 1023.6 in /  34659.1 hPa North 4.8 mph /  7.7 km/h 6.4 mph /  10.3 km/h 62 % 0.0 in /  0 mm
16:12 4.5 °F /  -15.3 °C -2.2 °F /  -19 °C 1023.6 in /  34659.1 hPa NNW 1.6 mph /  2.6 km/h 6.4 mph /  10.3 km/h 62 % 0.0 in /  0 mm
16:17 4.4 °F /  -15.3 °C -2.0 °F /  -18.9 °C 1023.6 in /  34659.1 hPa Calm   6.4 mph /  10.3 km/h 63 % 0.0 in /  0 mm
16:22 4.4 °F /  -15.3 °C -2.0 °F /  -18.9 °C 1023.6 in /  34659.1 hPa North 4.8 mph /  7.7 km/h 4.8 mph /  7.7 km/h 63 % 0.0 in /  0 mm
16:27 4.3 °F /  -15.4 °C -2.1 °F /  -18.9 °C 1023.6 in /  34659.1 hPa NNW 3.2 mph /  5.1 km/h 8.0 mph /  12.9 km/h 63 % 0.0 in /  0 mm
16:37 4.0 °F /  -15.6 °C -2.0 °F /  -18.9 °C 1023.6 in /  34659.1 hPa NNE 4.8 mph /  7.7 km/h 9.7 mph /  15.6 km/h 65 % 0.0 in /  0 mm
16:42 3.8 °F /  -15.7 °C -2.0 °F /  -18.9 °C 1023.6 in /  34659.1 hPa NNW 4.8 mph /  7.7 km/h 9.7 mph /  15.6 km/h 66 % 0.0 in /  0 mm
16:47 3.6 °F /  -15.8 °C -1.8 °F /  -18.8 °C 1023.2 in /  34645.6 hPa North 4.8 mph /  7.7 km/h 9.7 mph /  15.6 km/h 68 % 0.0 in /  0 mm
16:52 3.4 °F /  -15.9 °C -1.9 °F /  -18.8 °C 1023.2 in /  34645.6 hPa NNW 6.4 mph /  10.3 km/h 9.7 mph /  15.6 km/h 68 % 0.0 in /  0 mm
16:57 3.3 °F /  -15.9 °C -2.0 °F /  -18.9 °C 1023.2 in /  34645.6 hPa NNW 1.6 mph /  2.6 km/h 9.7 mph /  15.6 km/h 68 % 0.0 in /  0 mm
17:02 3.3 °F /  -15.9 °C -2.0 °F /  -18.9 °C 1023.2 in /  34645.6 hPa WNW 1.6 mph /  2.6 km/h 9.7 mph /  15.6 km/h 68 % 0.0 in /  0 mm
17:07 3.3 °F /  -15.9 °C -2.2 °F /  -19 °C 1023.6 in /  34659.1 hPa NW 1.6 mph /  2.6 km/h 8.0 mph /  12.9 km/h 67 % 0.0 in /  0 mm
17:12 3.2 °F /  -16 °C -2.3 °F /  -19.1 °C 1023.2 in /  34645.6 hPa NNW 1.6 mph /  2.6 km/h 3.2 mph /  5.1 km/h 67 % 0.0 in /  0 mm
17:22 2.7 °F /  -16.3 °C -2.2 °F /  -19 °C 1023.2 in /  34645.6 hPa North 1.6 mph /  2.6 km/h 3.2 mph /  5.1 km/h 70 % 0.0 in /  0 mm
17:27 2.6 °F /  -16.3 °C -2.3 °F /  -19.1 °C 1023.6 in /  34659.1 hPa NNW 3.2 mph /  5.1 km/h 3.2 mph /  5.1 km/h 70 % 0.0 in /  0 mm
17:32 2.6 °F /  -16.3 °C -2.3 °F /  -19.1 °C 1023.6 in /  34659.1 hPa NNW 1.6 mph /  2.6 km/h 3.2 mph /  5.1 km/h 70 % 0.0 in /  0 mm
17:37 2.5 °F /  -16.4 °C -2.4 °F /  -19.1 °C 1023.6 in /  34659.1 hPa NW 1.6 mph /  2.6 km/h 6.4 mph /  10.3 km/h 70 % 0.0 in /  0 mm
17:42 2.3 °F /  -16.5 °C -2.2 °F /  -19 °C 1023.6 in /  34659.1 hPa NNE 3.2 mph /  5.1 km/h 6.4 mph /  10.3 km/h 72 % 0.0 in /  0 mm
17:47 2.2 °F /  -16.6 °C -2.3 °F /  -19.1 °C 1023.6 in /  34659.1 hPa NNW 1.6 mph /  2.6 km/h 6.4 mph /  10.3 km/h 72 % 0.0 in /  0 mm
17:52 2.2 °F /  -16.6 °C -2.5 °F /  -19.2 °C 1023.9 in /  34669.3 hPa Calm   6.4 mph /  10.3 km/h 71 % 0.0 in /  0 mm
17:57 2.2 °F /  -16.6 °C -2.5 °F /  -19.2 °C 1023.9 in /  34669.3 hPa NW 1.6 mph /  2.6 km/h 4.8 mph /  7.7 km/h 71 % 0.0 in /  0 mm
18:02 2.1 °F /  -16.6 °C -2.6 °F /  -19.2 °C 1023.9 in /  34669.3 hPa NW 1.6 mph /  2.6 km/h 4.8 mph /  7.7 km/h 71 % 0.0 in /  0 mm
18:07 2.0 °F /  -16.7 °C -2.3 °F /  -19.1 °C 1023.9 in /  34669.3 hPa NNW 1.6 mph /  2.6 km/h 3.2 mph /  5.1 km/h 73 % 0.0 in /  0 mm
18:12 1.9 °F /  -16.7 °C -2.4 °F /  -19.1 °C 1024.3 in /  34682.8 hPa NNW 3.2 mph /  5.1 km/h 8.0 mph /  12.9 km/h 73 % 0.0 in /  0 mm
18:17 2.0 °F /  -16.7 °C -2.7 °F /  -19.3 °C 1024.3 in /  34682.8 hPa NNW 8.0 mph /  12.9 km/h 8.0 mph /  12.9 km/h 71 % 0.0 in /  0 mm
18:22 1.9 °F /  -16.7 °C -2.8 °F /  -19.3 °C 1024.3 in /  34682.8 hPa NNW 4.8 mph /  7.7 km/h 9.7 mph /  15.6 km/h 71 % 0.0 in /  0 mm
18:32 1.9 °F /  -16.7 °C -2.8 °F /  -19.3 °C 1024.3 in /  34682.8 hPa NNW 9.7 mph /  15.6 km/h 11.3 mph /  18.2 km/h 71 % 0.0 in /  0 mm
18:37 1.9 °F /  -16.7 °C -2.8 °F /  -19.3 °C 1024.3 in /  34682.8 hPa North 8.0 mph /  12.9 km/h 11.3 mph /  18.2 km/h 71 % 0.0 in /  0 mm
18:42 1.8 °F /  -16.8 °C -2.7 °F /  -19.3 °C 1024.3 in /  34682.8 hPa NNW 4.8 mph /  7.7 km/h 16.1 mph /  25.9 km/h 72 % 0.0 in /  0 mm
18:47 1.7 °F /  -16.8 °C -2.8 °F /  -19.3 °C 1024.3 in /  34682.8 hPa NNE 3.2 mph /  5.1 km/h 16.1 mph /  25.9 km/h 72 % 0.0 in /  0 mm
18:57 1.6 °F /  -16.9 °C -2.7 °F /  -19.3 °C 1024.6 in /  34693 hPa Calm   16.1 mph /  25.9 km/h 73 % 0.0 in /  0 mm
19:02 1.6 °F /  -16.9 °C -2.5 °F /  -19.2 °C 1024.3 in /  34682.8 hPa Calm   16.1 mph /  25.9 km/h 74 % 0.0 in /  0 mm
19:07 1.5 °F /  -16.9 °C -2.6 °F /  -19.2 °C 1024.3 in /  34682.8 hPa North 11.3 mph /  18.2 km/h 11.3 mph /  18.2 km/h 74 % 0.0 in /  0 mm
19:12 1.5 °F /  -16.9 °C -2.6 °F /  -19.2 °C 1024.6 in /  34693 hPa NNW 1.6 mph /  2.6 km/h 11.3 mph /  18.2 km/h 74 % 0.0 in /  0 mm
19:17 1.4 °F /  -17 °C -2.7 °F /  -19.3 °C 1024.6 in /  34693 hPa NNE 4.8 mph /  7.7 km/h 11.3 mph /  18.2 km/h 74 % 0.0 in /  0 mm
19:22 1.3 °F /  -17.1 °C -2.6 °F /  -19.2 °C 1024.6 in /  34693 hPa NNW 3.2 mph /  5.1 km/h 11.3 mph /  18.2 km/h 75 % 0.0 in /  0 mm
19:27 1.3 °F /  -17.1 °C -2.6 °F /  -19.2 °C 1024.6 in /  34693 hPa North 8.0 mph /  12.9 km/h 9.7 mph /  15.6 km/h 75 % 0.0 in /  0 mm
19:32 1.2 °F /  -17.1 °C -2.7 °F /  -19.3 °C 1024.6 in /  34693 hPa North 8.0 mph /  12.9 km/h 9.7 mph /  15.6 km/h 75 % 0.0 in /  0 mm
19:37 1.2 °F /  -17.1 °C -2.7 °F /  -19.3 °C 1024.6 in /  34693 hPa NW 1.6 mph /  2.6 km/h 12.9 mph /  20.8 km/h 75 % 0.0 in /  0 mm
19:42 1.2 °F /  -17.1 °C -2.6 °F /  -19.2 °C 1024.6 in /  34693 hPa North 3.2 mph /  5.1 km/h 12.9 mph /  20.8 km/h 76 % 0.0 in /  0 mm
19:47 1.1 °F /  -17.2 °C -2.7 °F /  -19.3 °C 1024.9 in /  34703.1 hPa NNE 4.8 mph /  7.7 km/h 12.9 mph /  20.8 km/h 76 % 0.0 in /  0 mm
19:52 1.1 °F /  -17.2 °C -2.7 °F /  -19.3 °C 1024.9 in /  34703.1 hPa NNE 6.4 mph /  10.3 km/h 12.9 mph /  20.8 km/h 76 % 0.0 in /  0 mm
19:57 1.1 °F /  -17.2 °C -2.7 °F /  -19.3 °C 1024.9 in /  34703.1 hPa North 9.7 mph /  15.6 km/h 16.1 mph /  25.9 km/h 76 % 0.0 in /  0 mm
20:02 1.1 °F /  -17.2 °C -2.7 °F /  -19.3 °C 1024.9 in /  34703.1 hPa NNW 6.4 mph /  10.3 km/h 16.1 mph /  25.9 km/h 76 % 0.0 in /  0 mm
20:07 1.1 °F /  -17.2 °C -2.7 °F /  -19.3 °C 1024.9 in /  34703.1 hPa NNW 4.8 mph /  7.7 km/h 16.1 mph /  25.9 km/h 76 % 0.0 in /  0 mm
20:12 1.0 °F /  -17.2 °C -2.6 °F /  -19.2 °C 1024.6 in /  34693 hPa NNE 8.0 mph /  12.9 km/h 16.1 mph /  25.9 km/h 77 % 0.0 in /  0 mm
20:17 0.9 °F /  -17.3 °C -2.7 °F /  -19.3 °C 1024.9 in /  34703.1 hPa NNE 8.0 mph /  12.9 km/h 16.1 mph /  25.9 km/h 77 % 0.0 in /  0 mm
20:22 0.9 °F /  -17.3 °C -2.7 °F /  -19.3 °C 1024.6 in /  34693 hPa North 6.4 mph /  10.3 km/h 16.1 mph /  25.9 km/h 77 % 0.0 in /  0 mm
20:32 0.8 °F /  -17.3 °C -2.6 °F /  -19.2 °C 1024.9 in /  34703.1 hPa North 8.0 mph /  12.9 km/h 14.5 mph /  23.3 km/h 78 % 0.0 in /  0 mm
20:37 0.7 °F /  -17.4 °C -2.7 °F /  -19.3 °C 1024.9 in /  34703.1 hPa North 3.2 mph /  5.1 km/h 12.9 mph /  20.8 km/h 78 % 0.0 in /  0 mm
20:42 0.7 °F /  -17.4 °C -2.7 °F /  -19.3 °C 1024.9 in /  34703.1 hPa NNW 9.7 mph /  15.6 km/h 12.9 mph /  20.8 km/h 78 % 0.0 in /  0 mm
20:47 0.6 °F /  -17.4 °C -2.8 °F /  -19.3 °C 1024.9 in /  34703.1 hPa NE 3.2 mph /  5.1 km/h 12.9 mph /  20.8 km/h 78 % 0.0 in /  0 mm
20:52 0.6 °F /  -17.4 °C -2.8 °F /  -19.3 °C 1024.9 in /  34703.1 hPa NNW 1.6 mph /  2.6 km/h 12.9 mph /  20.8 km/h 78 % 0.0 in /  0 mm
20:57 0.5 °F /  -17.5 °C -2.7 °F /  -19.3 °C 1024.9 in /  34703.1 hPa NW 3.2 mph /  5.1 km/h 12.9 mph /  20.8 km/h 79 % 0.0 in /  0 mm
21:02 0.4 °F /  -17.6 °C -2.8 °F /  -19.3 °C 1024.9 in /  34703.1 hPa NE 8.0 mph /  12.9 km/h 12.9 mph /  20.8 km/h 79 % 0.0 in /  0 mm
21:07 0.4 °F /  -17.6 °C -2.8 °F /  -19.3 °C 1024.9 in /  34703.1 hPa NE 6.4 mph /  10.3 km/h 9.7 mph /  15.6 km/h 79 % 0.0 in /  0 mm
21:12 0.3 °F /  -17.6 °C -2.9 °F /  -19.4 °C 1024.9 in /  34703.1 hPa NNW 3.2 mph /  5.1 km/h 9.7 mph /  15.6 km/h 79 % 0.0 in /  0 mm
21:17 0.3 °F /  -17.6 °C -2.9 °F /  -19.4 °C 1025.3 in /  34716.7 hPa North 6.4 mph /  10.3 km/h 9.7 mph /  15.6 km/h 79 % 0.0 in /  0 mm
21:22 0.3 °F /  -17.6 °C -2.7 °F /  -19.3 °C 1025.3 in /  34716.7 hPa North 1.6 mph /  2.6 km/h 9.7 mph /  15.6 km/h 80 % 0.0 in /  0 mm
21:27 0.2 °F /  -17.7 °C -2.8 °F /  -19.3 °C 1025.3 in /  34716.7 hPa North 8.0 mph /  12.9 km/h 11.3 mph /  18.2 km/h 80 % 0.0 in /  0 mm
21:32 0.2 °F /  -17.7 °C -2.7 °F /  -19.3 °C 1024.9 in /  34703.1 hPa North 6.4 mph /  10.3 km/h 11.3 mph /  18.2 km/h 81 % 0.0 in /  0 mm
21:37 0.1 °F /  -17.7 °C -2.8 °F /  -19.3 °C 1024.9 in /  34703.1 hPa NNE 3.2 mph /  5.1 km/h 9.7 mph /  15.6 km/h 81 % 0.0 in /  0 mm
21:43 0.1 °F /  -17.7 °C -2.8 °F /  -19.3 °C 1024.9 in /  34703.1 hPa NE 4.8 mph /  7.7 km/h 9.7 mph /  15.6 km/h 81 % 0.0 in /  0 mm
21:52 0.1 °F /  -17.7 °C -2.8 °F /  -19.3 °C 1024.9 in /  34703.1 hPa North 3.2 mph /  5.1 km/h 12.9 mph /  20.8 km/h 81 % 0.0 in /  0 mm
21:57 0.0 °F /  -17.8 °C -2.9 °F /  -19.4 °C 1024.9 in /  34703.1 hPa NNW 8.0 mph /  12.9 km/h 12.9 mph /  20.8 km/h 81 % 0.0 in /  0 mm
22:02 0.0 °F /  -17.8 °C -2.9 °F /  -19.4 °C 1024.9 in /  34703.1 hPa North 8.0 mph /  12.9 km/h 12.9 mph /  20.8 km/h 81 % 0.0 in /  0 mm
22:07 0.0 °F /  -17.8 °C -2.9 °F /  -19.4 °C 1024.9 in /  34703.1 hPa North 9.7 mph /  15.6 km/h 12.9 mph /  20.8 km/h 81 % 0.0 in /  0 mm
22:12 0.0 °F /  -17.8 °C -2.9 °F /  -19.4 °C 1024.9 in /  34703.1 hPa NNE 9.7 mph /  15.6 km/h 12.9 mph /  20.8 km/h 81 % 0.0 in /  0 mm
22:17 0.0 °F /  -17.8 °C -2.9 °F /  -19.4 °C 1024.9 in /  34703.1 hPa NW 9.7 mph /  15.6 km/h 14.5 mph /  23.3 km/h 81 % 0.0 in /  0 mm
22:22 0.0 °F /  -17.8 °C -2.9 °F /  -19.4 °C 1024.9 in /  34703.1 hPa NNW 4.8 mph /  7.7 km/h 14.5 mph /  23.3 km/h 81 % 0.0 in /  0 mm
22:27 -0.1 °F /  -17.8 °C -3.0 °F /  -19.4 °C 1024.9 in /  34703.1 hPa NW 4.8 mph /  7.7 km/h 12.9 mph /  20.8 km/h 81 % 0.0 in /  0 mm
22:32 -0.1 °F /  -17.8 °C -3.0 °F /  -19.4 °C 1024.9 in /  34703.1 hPa NW 3.2 mph /  5.1 km/h 12.9 mph /  20.8 km/h 81 % 0.0 in /  0 mm
22:37 -0.1 °F /  -17.8 °C -3.0 °F /  -19.4 °C 1024.9 in /  34703.1 hPa NW 4.8 mph /  7.7 km/h 9.7 mph /  15.6 km/h 81 % 0.0 in /  0 mm
22:42 -0.1 °F /  -17.8 °C -3.0 °F /  -19.4 °C 1025.3 in /  34716.7 hPa NNW 1.6 mph /  2.6 km/h 9.7 mph /  15.6 km/h 81 % 0.0 in /  0 mm
22:47 -0.1 °F /  -17.8 °C -3.0 °F /  -19.4 °C 1025.3 in /  34716.7 hPa NNE 3.2 mph /  5.1 km/h 8.0 mph /  12.9 km/h 81 % 0.0 in /  0 mm
22:52 0.0 °F /  -17.8 °C -2.9 °F /  -19.4 °C 1025.3 in /  34716.7 hPa NNE 3.2 mph /  5.1 km/h 8.0 mph /  12.9 km/h 81 % 0.0 in /  0 mm
22:57 0.0 °F /  -17.8 °C -2.9 °F /  -19.4 °C 1025.3 in /  34716.7 hPa NNW 1.6 mph /  2.6 km/h 6.4 mph /  10.3 km/h 81 % 0.0 in /  0 mm
23:02 0.0 °F /  -17.8 °C -2.9 °F /  -19.4 °C 1025.3 in /  34716.7 hPa Calm   6.4 mph /  10.3 km/h 81 % 0.0 in /  0 mm
23:07 0.0 °F /  -17.8 °C -2.9 °F /  -19.4 °C 1025.3 in /  34716.7 hPa NE 1.6 mph /  2.6 km/h 4.8 mph /  7.7 km/h 81 % 0.0 in /  0 mm
23:12 0.0 °F /  -17.8 °C -2.9 °F /  -19.4 °C 1025.3 in /  34716.7 hPa Calm   4.8 mph /  7.7 km/h 81 % 0.0 in /  0 mm
23:17 0.0 °F /  -17.8 °C -2.9 °F /  -19.4 °C 1025.6 in /  34726.8 hPa Calm   3.2 mph /  5.1 km/h 81 % 0.0 in /  0 mm
23:22 -0.1 °F /  -17.8 °C -3.0 °F /  -19.4 °C 1025.6 in /  34726.8 hPa Calm   3.2 mph /  5.1 km/h 81 % 0.0 in /  0 mm
23:27 0.0 °F /  -17.8 °C -2.9 °F /  -19.4 °C 1025.6 in /  34726.8 hPa Calm   3.2 mph /  5.1 km/h 81 % 0.0 in /  0 mm
23:32 0.0 °F /  -17.8 °C -3.0 °F /  -19.4 °C 1025.6 in /  34726.8 hPa Calm   3.2 mph /  5.1 km/h 80 % 0.0 in /  0 mm
23:37 -0.1 °F /  -17.8 °C -3.0 °F /  -19.4 °C 1025.6 in /  34726.8 hPa Calm   4.8 mph /  7.7 km/h 81 % 0.0 in /  0 mm
23:42 -0.1 °F /  -17.8 °C -3.0 °F /  -19.4 °C 1025.6 in /  34726.8 hPa NNE 1.6 mph /  2.6 km/h 4.8 mph /  7.7 km/h 81 % 0.0 in /  0 mm
23:47 -0.2 °F /  -17.9 °C -2.9 °F /  -19.4 °C 1025.6 in /  34726.8 hPa NE 4.8 mph /  7.7 km/h 6.4 mph /  10.3 km/h 82 % 0.0 in /  0 mm
23:52 -0.2 °F /  -17.9 °C -2.9 °F /  -19.4 °C 1025.6 in /  34726.8 hPa NE 1.6 mph /  2.6 km/h 6.4 mph /  10.3 km/h 82 % 0.0 in /  0 mm
23:57 -0.3 °F /  -17.9 °C -3.0 °F /  -19.4 °C 1025.6 in /  34726.8 hPa Calm   6.4 mph /  10.3 km/h 82 % 0.0 in /  0 mm
Meteo18
Compliments of Weather Underground - 4 mb

Script developed by  Jim McMurry - jmcmurry@mwt.net Adapted for the template by  Wim van der Kuil - Leuven-Template.eu

You find our weather info also at:

European Weather Network

Weather Underground

Equipment we use:

Weather-station
Davis Vue

Weather-program
Meteobridge

Weather-server
Raspberry PI 2 B+

Provider
1 and 1

Davis Vue

Meteobridge

Raspberry PI 2 B+

1 and 1